Flight Track Log - Related Links

Times and Time Zones

All times are in EDT time to prevent confusion due to time zone crossing. See the SWA543 flight status page for this flight to view local times or setup timezone preferences in your user account.

Time Position Orientation Groundspeed Altitude Reporting Facility
EDT Latitude Longitude Course Direction KTS MPH feet Rate Location/Type
Sat 02:14:10 PM 29.6564 -95.2672 329° Northwest 161 185 700  Level Houston Center
Sat 02:15:12 PM 29.6947 -95.2939 329° Northwest 221 254 3,300 2,439 Climbing Houston Center
Sat 02:16:13 PM 29.7281 -95.3597 300° West 266 306 5,700 1,905 Climbing Houston Center
Sat 02:16:15 PM 29.7253 -95.3508 110° East 228 262 5,300 3,581 Descending Houston Center
Sat 02:17:15 PM 29.7525 -95.4433 289° West 260 299 9,400 3,387 Climbing Houston Center
Sat 02:17:17 PM 29.7525 -95.4317 90° East 266 306 8,800 1,313 Descending Houston Center
Sat 02:18:19 PM 29.7700 -95.5122 284° West 264 304 10,800 2,323 Climbing Houston Center
Sat 02:19:21 PM 29.7994 -95.6306 286° West 307 353 13,600 2,516 Climbing Houston Center
Sat 02:20:23 PM 29.8228 -95.7308 285° West 321 369 16,000 2,448 Climbing Houston Center
Sat 02:21:26 PM 29.8478 -95.8358 285° West 333 383 18,700 2,208 Climbing Houston Center
Sat 02:22:28 PM 29.8744 -95.9436 286° West 342 394 20,600 1,887 Climbing Houston Center
Sat 02:23:30 PM 29.9000 -96.0536 285° West 356 410 22,600 1,887 Climbing Houston Center
Sat 02:24:32 PM 29.9328 -96.1906 285° West 369 425 24,500 1,790 Climbing Houston Center
Sat 02:25:34 PM 29.9550 -96.3111 282° West 383 441 26,300 1,548 Climbing Houston Center
Sat 02:26:36 PM 29.9828 -96.4319 285° West 386 444 27,700 1,500 Climbing Houston Center
Sat 02:27:38 PM 30.0119 -96.5547 285° West 394 453 29,400 1,887 Climbing Houston Center
Sat 02:28:40 PM 30.0386 -96.6739 285° West 391 450 31,600 2,081 Climbing Houston Center
Sat 02:29:42 PM 30.0681 -96.8067 284° West 364 419 33,700 1,645 Climbing Houston Center
Sat 02:30:44 PM 30.0933 -96.9186 285° West 363 418 35,000 1,056 Climbing Houston Center
Sat 02:31:47 PM 30.1172 -97.0264 284° West 353 406 35,900 480 Climbing Houston Center
Sat 02:32:49 PM 30.1419 -97.1353 285° West 352 405 36,000 48 Climbing Houston Center
Sat 02:33:51 PM 30.1658 -97.2450 284° West 352 405 36,000  Level Houston Center
Sat 02:34:53 PM 30.1950 -97.3783 284° West 354 407 36,000 -48 Level Houston Center
Sat 02:35:55 PM 30.2181 -97.4869 284° West 353 406 35,900  Descending Houston Center
Sat 02:36:57 PM 30.2439 -97.5958 285° West 354 407 36,000 48 Climbing Houston Center
Sat 02:37:59 PM 30.2669 -97.7056 284° West 353 406 36,000  Level Houston Center
Sat 02:39:02 PM 30.2906 -97.8153 284° West 353 406 36,000  Level Houston Center
Sat 02:40:04 PM 30.3192 -97.9486 284° West 354 407 36,000  Level Houston Center
Sat 02:41:06 PM 30.3422 -98.0581 284° West 354 407 36,000  Level Houston Center
Sat 02:42:08 PM 30.3656 -98.1678 284° West 354 407 36,000  Level Houston Center
Sat 02:43:10 PM 30.3903 -98.2789 284° West 354 407 36,000  Level Houston Center
Sat 02:44:12 PM 30.4117 -98.3911 282° West 355 409 36,000  Level Houston Center
Sat 02:45:15 PM 30.4406 -98.5206 285° West 357 411 36,000  Level Houston Center
Sat 02:46:17 PM 30.4653 -98.6414 283° West 359 413 36,000  Level Houston Center
Sat 02:47:19 PM 30.4889 -98.7528 284° West 358 412 36,000  Level Houston Center
Sat 02:48:21 PM 30.5131 -98.8667 284° West 361 415 36,000  Level Houston Center
Sat 02:49:23 PM 30.5364 -98.9800 283° West 362 417 36,000  Level Houston Center
Sat 02:50:25 PM 30.5592 -99.0931 283° West 362 417 36,000  Level Houston Center
Sat 02:51:27 PM 30.5831 -99.2058 284° West 362 417 36,000  Level Houston Center
Sat 02:52:30 PM 30.6100 -99.3431 283° West 363 418 36,000  Level Houston Center
Sat 02:53:32 PM 30.6328 -99.4575 283° West 365 420 36,000  Level Houston Center
Sat 02:54:34 PM 30.6567 -99.5714 284° West 365 420 36,000  Level Houston Center
Sat 02:55:37 PM 30.6794 -99.6844 283° West 365 420 36,000  Level Houston Center
Sat 02:56:39 PM 30.7031 -99.7989 284° West 365 420 36,000  Level Houston Center
Sat 02:57:41 PM 30.7292 -99.9342 283° West 364 419 36,000  Level Houston Center
Sat 02:58:43 PM 30.7517 -100.0489 283° West 365 420 36,000  Level Houston Center
Sat 02:59:45 PM 30.7736 -100.1642 283° West 365 420 36,000  Level Houston Center
Sat 03:00:47 PM 30.7961 -100.2786 283° West 365 420 36,000 -48 Level Houston Center
Sat 03:01:50 PM 30.8183 -100.3936 283° West 366 421 35,900 -48 Descending Houston Center
Sat 03:02:52 PM 30.8458 -100.5319 283° West 366 421 35,900 48 Level Houston Center
Sat 03:03:54 PM 30.8675 -100.6467 282° West 366 421 36,000 48 Climbing Houston Center
Sat 03:04:56 PM 30.8889 -100.7614 282° West 366 421 36,000  Level Houston Center
Sat 03:05:58 PM 30.9122 -100.8753 283° West 366 421 36,000  Level Houston Center
Sat 03:07:01 PM 30.9336 -100.9897 282° West 365 420 36,000  Level Houston Center
Sat 03:08:03 PM 30.9603 -101.1297 283° West 366 421 36,000  Level Houston Center
Sat 03:09:05 PM 30.9825 -101.2456 283° West 367 422 36,000  Level Houston Center
Sat 03:10:07 PM 31.0028 -101.3653 281° West 368 423 36,000  Level Houston Center
Sat 03:11:09 PM 31.0247 -101.4831 282° West 368 423 36,000 -48 Level Houston Center
Sat 03:12:11 PM 31.0469 -101.5994 283° West 368 423 35,900  Descending Houston Center
Sat 03:13:14 PM 31.0675 -101.7175 282° West 369 425 36,000 48 Climbing Houston Center
Sat 03:14:15 PM 31.0942 -101.8581 283° West 369 425 36,000  Level Houston Center
Sat 03:15:17 PM 31.1158 -101.9769 282° West 370 426 36,000  Level Houston Center
Sat 03:16:19 PM 31.1372 -102.0961 282° West 371 427 36,000  Level Houston Center
Sat 03:17:12 PM 31.1533 -102.1914 281° West 378 435 36,000  Level Albuquerque Center
Sat 03:18:14 PM 31.1756 -102.3111 282° West 377 434 36,000  Level Albuquerque Center
Sat 03:19:15 PM 31.1992 -102.4542 281° West 377 434 36,000  Level Albuquerque Center
Sat 03:20:17 PM 31.2183 -102.5608 282° West 377 434 36,000  Level Albuquerque Center
Sat 03:21:19 PM 31.2394 -102.6794 282° West 377 434 36,000  Level Albuquerque Center
Sat 03:22:21 PM 31.2647 -102.8239 282° West 377 434 36,000  Level Albuquerque Center
Sat 03:23:23 PM 31.2844 -102.9431 281° West 377 434 36,000  Level Albuquerque Center
Sat 03:24:25 PM 31.3058 -103.0633 282° West 377 434 36,000  Level Albuquerque Center
Sat 03:25:26 PM 31.3264 -103.1844 281° West 377 434 36,000  Level Albuquerque Center
Sat 03:26:28 PM 31.3461 -103.3031 281° West 377 434 36,000  Level Albuquerque Center
Sat 03:27:30 PM 31.3661 -103.4242 281° West 377 434 36,000  Level Albuquerque Center
Sat 03:28:32 PM 31.3858 -103.5453 281° West 377 434 36,000  Level Albuquerque Center
Sat 03:29:34 PM 31.4108 -103.6892 282° West 377 434 36,000  Level Albuquerque Center
Sat 03:30:35 PM 31.4283 -103.8011 280° West 377 434 36,000  Level Albuquerque Center
Sat 03:31:37 PM 31.4511 -103.9228 282° West 380 437 36,000  Level Albuquerque Center
Sat 03:32:39 PM 31.4694 -104.0447 280° West 380 437 36,000  Level Albuquerque Center
Sat 03:33:41 PM 31.4933 -104.1914 281° West 381 438 36,000  Level Albuquerque Center
Sat 03:34:42 PM 31.5136 -104.3142 281° West 382 440 36,000  Level Albuquerque Center
Sat 03:35:44 PM 31.5333 -104.4361 281° West 383 441 36,000  Level Albuquerque Center
Sat 03:36:46 PM 31.5528 -104.5586 281° West 383 441 36,000  Level Albuquerque Center
Sat 03:37:48 PM 31.5728 -104.6817 281° West 383 441 36,000  Level Albuquerque Center
Sat 03:38:49 PM 31.5931 -104.8042 281° West 383 441 36,000  Level Albuquerque Center
Sat 03:39:51 PM 31.6153 -104.9508 280° West 384 442 36,000  Level Albuquerque Center
Sat 03:40:53 PM 31.6350 -105.0736 281° West 384 442 36,000  Level Albuquerque Center
Sat 03:41:55 PM 31.6544 -105.1956 281° West 384 442 36,000  Level Albuquerque Center
Sat 03:42:57 PM 31.6722 -105.3186 280° West 384 442 36,000  Level Albuquerque Center
Sat 03:43:58 PM 31.6900 -105.4431 280° West 388 447 36,000  Level Albuquerque Center
Sat 03:45:00 PM 31.7097 -105.5653 281° West 385 443 36,000  Level Albuquerque Center
Sat 03:46:02 PM 31.7308 -105.7133 280° West 385 443 36,000  Level Albuquerque Center
Sat 03:47:04 PM 31.7500 -105.8364 280° West 385 443 36,000  Level Albuquerque Center
Sat 03:48:05 PM 31.7683 -105.9594 280° West 385 443 36,000  Level Albuquerque Center
Sat 03:49:07 PM 31.7864 -106.0828 280° West 385 443 36,000  Level Albuquerque Center
Sat 03:50:09 PM 31.8053 -106.2061 280° West 385 443 36,000  Level Albuquerque Center
Sat 03:51:11 PM 31.8219 -106.3308 279° West 385 443 36,000  Level Albuquerque Center
Sat 03:52:13 PM 31.8303 -106.4556 275° West 385 443 36,000  Level Albuquerque Center
Sat 03:53:14 PM 31.8394 -106.5925 275° West 385 443 36,000  Level Albuquerque Center
Sat 03:54:16 PM 31.8494 -106.7181 275° West 385 443 36,000  Level Albuquerque Center
Sat 03:55:18 PM 31.8586 -106.8433 275° West 385 443 36,000  Level Albuquerque Center
Sat 03:56:20 PM 31.8694 -106.9944 275° West 385 443 36,000  Level Albuquerque Center
Sat 03:57:21 PM 31.8783 -107.1211 275° West 386 444 36,000  Level Albuquerque Center
Sat 03:58:23 PM 31.8878 -107.2489 275° West 387 445 36,000  Level Albuquerque Center
Sat 03:59:25 PM 31.8950 -107.3764 274° West 388 447 36,000  Level Albuquerque Center
Sat 04:00:27 PM 31.9039 -107.5039 275° West 388 447 36,000  Level Albuquerque Center
Sat 04:01:28 PM 31.9117 -107.6314 274° West 388 447 36,000 -49 Level Albuquerque Center
Sat 04:02:30 PM 31.9200 -107.7581 274° West 388 447 35,900  Descending Albuquerque Center
Sat 04:03:32 PM 31.9475 -107.8844 284° West 392 451 36,000 48 Climbing Albuquerque Center
Sat 04:04:34 PM 31.9831 -108.0344 286° West 394 453 36,000  Level Albuquerque Center
Sat 04:05:35 PM 32.0119 -108.1586 285° West 394 453 36,000  Level Albuquerque Center
Sat 04:06:37 PM 32.0414 -108.2833 286° West 394 453 36,000  Level Albuquerque Center
Sat 04:07:39 PM 32.0706 -108.4089 285° West 394 453 36,000  Level Albuquerque Center
Sat 04:08:41 PM 32.1031 -108.5436 286° West 394 453 36,000  Level Albuquerque Center
Sat 04:09:42 PM 32.1322 -108.6686 285° West 394 453 36,000  Level Albuquerque Center
Sat 04:10:44 PM 32.1606 -108.7931 285° West 394 453 36,000  Level Albuquerque Center
Sat 04:11:46 PM 32.1892 -108.9186 285° West 394 453 36,000  Level Albuquerque Center
Sat 04:12:47 PM 32.2183 -109.0439 285° West 394 453 36,000  Level Albuquerque Center
Sat 04:13:49 PM 32.2469 -109.1703 285° West 394 453 36,000  Level Albuquerque Center
Sat 04:14:51 PM 32.2758 -109.2956 285° West 394 453 36,000  Level Albuquerque Center
Sat 04:15:53 PM 32.3133 -109.4461 286° West 395 455 36,000  Level Albuquerque Center
Sat 04:16:54 PM 32.3433 -109.5736 286° West 396 456 36,000  Level Albuquerque Center
Sat 04:17:56 PM 32.3750 -109.7003 287° West 397 457 36,000  Level Albuquerque Center
Sat 04:18:58 PM 32.4044 -109.8264 285° West 398 458 36,000  Level Albuquerque Center
Sat 04:20:00 PM 32.4378 -109.9592 287° West 413 475 36,000 -244 Level Albuquerque Center
Sat 04:21:01 PM 32.4681 -110.0872 286° West 409 471 35,500 -1,951 Descending Albuquerque Center
Sat 04:22:03 PM 32.5000 -110.2156 286° West 409 471 32,000 -3,387 Descending Albuquerque Center
Sat 04:23:05 PM 32.5353 -110.3672 285° West 410 472 28,500 -3,000 Descending Albuquerque Center
Sat 04:24:07 PM 32.5647 -110.4944 285° West 407 468 25,800 -2,195 Descending Albuquerque Center
Sat 04:25:08 PM 32.5969 -110.6144 288° West 389 448 24,000 -878 Descending Albuquerque Center
Sat 04:26:10 PM 32.6561 -110.7147 305° West 377 434 24,000  Level Albuquerque Center
Sat 04:27:12 PM 32.7131 -110.8214 302° West 377 434 24,000  Level Albuquerque Center
Sat 04:28:14 PM 32.7703 -110.9275 303° West 378 435 24,000 -1,171 Level Albuquerque Center
Sat 04:29:15 PM 32.8358 -111.0542 302° West 379 436 21,600 -2,098 Descending Albuquerque Center
Sat 04:30:17 PM 32.8878 -111.1547 302° West 364 419 19,700 -1,887 Descending Albuquerque Center
Sat 04:31:19 PM 32.9322 -111.2506 299° West 337 388 17,700 -2,000 Descending Albuquerque Center
Sat 04:32:20 PM 32.9758 -111.3447 299° West 328 377 15,600 -1,415 Descending Albuquerque Center
Sat 04:33:22 PM 33.0183 -111.4358 299° West 318 366 14,800 -1,355 Descending Albuquerque Center
Sat 04:34:24 PM 33.0614 -111.5183 302° West 299 344 12,800 -1,355 Descending Albuquerque Center
Sat 04:35:26 PM 33.1036 -111.6028 301° West 299 344 12,000 -390 Descending Albuquerque Center
Sat 04:36:27 PM 33.1461 -111.6861 301° West 297 342 12,000 -976 Level Albuquerque Center
Sat 04:37:29 PM 33.1969 -111.7869 301° West 296 341 10,000 -1,161 Descending Albuquerque Center
Sat 04:38:31 PM 33.2386 -111.8683 301° West 292 336 9,600 -488 Descending Albuquerque Center
Sat 04:39:32 PM 33.2794 -111.9494 301° West 288 331 9,000 -878 Descending Albuquerque Center
Sat 04:40:34 PM 33.3169 -112.0250 301° West 268 308 7,800 -1,073 Descending Albuquerque Center
Sat 04:41:35 PM 33.3433 -112.1008 293° West 254 292 6,800 -1,024 Descending Albuquerque Center
Sat 04:42:37 PM 33.3428 -112.1792 270° West 239 275 5,700 -1,161 Descending Albuquerque Center
Sat 04:43:39 PM 33.3897 -112.2178 326° Northwest 228 262 4,400 -1,220 Descending Albuquerque Center
Sat 04:44:40 PM 33.4272 -112.1669 49° Northeast 219 252 3,200 -1,024 Descending Albuquerque Center
Sat 04:45:42 PM 33.4286 -112.1006 89° East 163 188 2,300 -821 Descending Albuquerque Center
Sat 04:46:15 PM 33.4333 -112.0667 81° East 139 160 1,900 -727 Descending Phoenix TRACON

Login

Don't have an account? Register now (free) for customized features, flight alerts, and more!